Sunday, December 17, 2017, 2:43 PM EST
Back to Local

KFMH, Otis Air National Guard Base

Location: Mashpee, MA, United States Lat: 41.65
Local Time: 2:43 PM EST (19:43 GMT) Lon: -70.517
Time Zone: US/Eastern Elev: 131 ft

Show me the last for .
Show Decoded

2017-12-17 14:15 METAR KFMH 171915Z AUTO 29005KT 10SM CLR M02/M16 A3022 RMK AO2 =
2017-12-17 13:55 METAR KFMH 171855Z AUTO 31006KT 10SM CLR M02/M18 A3022 RMK AO2 =
2017-12-17 13:35 METAR KFMH 171835Z AUTO 30006G11KT 10SM CLR M02/M18 A3023 RMK AO2 =
2017-12-17 13:15 METAR KFMH 171815Z AUTO 29009KT 10SM CLR M02/M17 A3023 RMK AO2 =
2017-12-17 12:55 METAR KFMH 171755Z AUTO 33006KT 10SM CLR M03/M18 A3023 RMK AO2 =
2017-12-17 12:35 METAR KFMH 171735Z AUTO 33008KT 10SM CLR M02/M18 A3023 RMK AO2 =
2017-12-17 12:15 METAR KFMH 171715Z AUTO 31006G12KT 10SM CLR M03/M17 A3024 RMK AO2 =
2017-12-17 11:55 METAR KFMH 171655Z AUTO 29009KT 10SM CLR M03/M16 A3025 RMK AO2 =
2017-12-17 11:35 METAR KFMH 171635Z AUTO 28009KT 10SM CLR M03/M15 A3025 RMK AO2 =
2017-12-17 11:15 METAR KFMH 171615Z AUTO 30008KT 10SM CLR M03/M16 A3025 RMK AO2 =
2017-12-17 10:55 METAR KFMH 171555Z AUTO VRB06G12KT 10SM CLR M04/M16 A3026 RMK AO2 =
2017-12-17 10:35 METAR KFMH 171535Z AUTO 30009KT 10SM CLR M04/M15 A3026 RMK AO2 =
2017-12-17 10:15 METAR KFMH 171515Z AUTO 31010KT 10SM CLR M04/M16 A3026 RMK AO2 =
2017-12-17 09:55 METAR KFMH 171455Z AUTO 31010KT 10SM CLR M05/M16 A3027 RMK AO2 =
2017-12-17 09:15 METAR KFMH 171415Z AUTO 32009KT 10SM CLR M05/M16 A3027 RMK AO2 =
2017-12-17 08:55 METAR KFMH 171355Z AUTO 32008G14KT 10SM CLR M06/M15 A3027 RMK AO2 =
2017-12-17 08:35 METAR KFMH 171335Z AUTO 31008KT 10SM CLR M06/M15 A3027 RMK AO2 =
2017-12-17 08:15 METAR KFMH 171315Z AUTO 30007KT 10SM CLR M07/M14 A3026 RMK AO2 =
2017-12-17 07:55 METAR KFMH 171255Z AUTO 30008KT 10SM CLR M08/M14 A3026 RMK AO2 =
2017-12-17 07:35 METAR KFMH 171235Z AUTO 30008KT 10SM CLR M09/M14 A3026 RMK AO2 =
2017-12-17 07:15 METAR KFMH 171215Z AUTO 30006KT 10SM CLR M10/M14 A3026 RMK AO2 =
2017-12-17 06:55 METAR KFMH 171155Z AUTO 29005KT 10SM CLR M09/M14 A3026 RMK AO2 =
2017-12-17 06:35 METAR KFMH 171135Z AUTO 30005KT 10SM CLR M08/M13 A3026 RMK AO2 =
2017-12-17 06:15 METAR KFMH 171115Z AUTO 31006KT 10SM CLR M08/M13 A3026 RMK AO2 =
2017-12-17 05:55 METAR KFMH 171055Z AUTO 29006KT 10SM CLR M08/M13 A3027 RMK AO2 =
2017-12-17 05:35 METAR KFMH 171035Z AUTO 29006KT 10SM CLR M08/M13 A3025 RMK AO2 FZRANO =
2017-12-17 05:15 METAR KFMH 171015Z AUTO 29007KT 10SM CLR M09/M13 A3023 RMK AO2 =
2017-12-17 04:55 METAR KFMH 170955Z AUTO 29007KT 10SM CLR M09/M13 A3023 RMK AO2 =
2017-12-17 04:35 METAR KFMH 170935Z AUTO 30007KT 10SM CLR M08/M13 A3023 RMK AO2 =
2017-12-17 04:15 METAR KFMH 170915Z AUTO 31007KT 10SM CLR M08/M12 A3022 RMK AO2 =
2017-12-17 03:55 METAR KFMH 170855Z AUTO 30005KT 10SM CLR M08/M12 A3022 RMK AO2 =
2017-12-17 03:35 METAR KFMH 170835Z AUTO 30004KT 10SM CLR M08/M11 A3021 RMK AO2 =
2017-12-17 03:15 METAR KFMH 170815Z AUTO 30004KT 10SM CLR M08/M11 A3021 RMK AO2 =
2017-12-17 02:55 METAR KFMH 170755Z AUTO 29006KT 10SM CLR M08/M11 A3021 RMK AO2 =
2017-12-17 02:35 METAR KFMH 170735Z AUTO 29006KT 10SM CLR M08/M11 A3020 RMK AO2 =
2017-12-17 02:15 METAR KFMH 170715Z AUTO 31004KT 10SM CLR M07/M11 A3020 RMK AO2 =
2017-12-17 01:55 METAR KFMH 170655Z AUTO 31005KT 10SM CLR M06/M11 A3019 RMK AO2 =
2017-12-17 01:35 METAR KFMH 170635Z AUTO 31005KT 10SM CLR M06/M11 A3018 RMK AO2 =
2017-12-17 01:15 METAR KFMH 170615Z AUTO 31006KT 10SM CLR M06/M11 A3018 RMK AO2 =
2017-12-17 00:55 METAR KFMH 170555Z AUTO 31006KT 10SM CLR M05/M11 A3017 RMK AO2 =
2017-12-17 00:35 METAR KFMH 170535Z AUTO 30008KT 10SM CLR M05/M10 A3017 RMK AO2 =
2017-12-17 00:15 METAR KFMH 170515Z AUTO 31006KT 10SM CLR M06/M10 A3017 RMK AO2 =
2017-12-16 23:55 METAR KFMH 170455Z AUTO 30004KT 10SM CLR M05/M10 A3017 RMK AO2 =
2017-12-16 23:35 METAR KFMH 170435Z AUTO 31005KT 10SM CLR M04/M10 A3016 RMK AO2 =
2017-12-16 23:15 METAR KFMH 170415Z AUTO 31006KT 10SM CLR M05/M09 A3016 RMK AO2 =
2017-12-16 22:55 METAR KFMH 170355Z AUTO 30007KT 10SM CLR M04/M09 A3016 RMK AO2 =
2017-12-16 22:35 METAR KFMH 170335Z AUTO 30006KT 10SM CLR M04/M09 A3015 RMK AO2 =
2017-12-16 22:15 METAR KFMH 170315Z AUTO 31007G13KT 10SM CLR M04/M09 A3014 RMK AO2 =
2017-12-16 21:55 METAR KFMH 170255Z AUTO 30009KT 10SM CLR M03/M09 A3013 RMK AO2 =
2017-12-16 21:35 METAR KFMH 170235Z AUTO 30009KT 10SM CLR M03/M09 A3013 RMK AO2 =
2017-12-16 21:15 METAR KFMH 170215Z AUTO 30008G13KT 10SM CLR M03/M09 A3011 RMK AO2 =
2017-12-16 20:55 METAR KFMH 170155Z AUTO 30009G14KT 10SM CLR M02/M09 A3011 RMK AO2 =
2017-12-16 20:35 METAR KFMH 170135Z AUTO 30012G18KT 10SM CLR M02/M08 A3010 RMK AO2 =
2017-12-16 20:15 METAR KFMH 170115Z AUTO 29010KT 10SM CLR M03/M08 A3009 RMK AO2 =
2017-12-16 19:55 METAR KFMH 170055Z AUTO 30008KT 10SM CLR M02/M08 A3008 RMK AO2 =
2017-12-16 19:35 METAR KFMH 170035Z AUTO 30008KT 10SM SCT060 M02/M08 A3007 RMK AO2 =
2017-12-16 19:15 METAR KFMH 170015Z AUTO 30010KT 10SM SCT050 OVC060 M02/M08 A3006 RMK AO2 =
2017-12-16 18:55 METAR KFMH 162355Z AUTO 31008KT 10SM BKN050 OVC055 M02/M08 A3006 RMK AO2 =
2017-12-16 18:35 METAR KFMH 162335Z AUTO 31009KT 10SM BKN055 OVC070 M02/M08 A3005 RMK AO2 =
2017-12-16 18:15 METAR KFMH 162315Z AUTO 31006KT 10SM BKN055 OVC065 M01/M08 A3003 RMK AO2 =
2017-12-16 17:55 METAR KFMH 162255Z AUTO 30008KT 10SM BKN055 OVC065 M02/M08 A3002 RMK AO2 =
2017-12-16 17:35 METAR KFMH 162235Z AUTO 29007KT 10SM FEW043 SCT050 OVC065 M02/M08 A3001 RMK AO2
                 =
2017-12-16 17:15 METAR KFMH 162215Z AUTO 29006KT 10SM BKN070 BKN085 OVC100 M02/M08 A2999 RMK AO2
                 =
2017-12-16 16:55 METAR KFMH 162155Z AUTO 30006KT 10SM SCT090 OVC100 M01/M08 A2998 RMK AO2 =
2017-12-16 16:35 METAR KFMH 162135Z AUTO 30007KT 10SM OVC110 M01/M08 A2997 RMK AO2 =
2017-12-16 16:15 METAR KFMH 162115Z AUTO 30006KT 10SM OVC100 M02/M08 A2996 RMK AO2 =
2017-12-16 15:55 METAR KFMH 162055Z AUTO 28007KT 10SM SCT110 M02/M09 A2995 RMK AO2 =
2017-12-16 15:35 METAR KFMH 162035Z AUTO 27011KT 10SM FEW095 M01/M09 A2995 RMK AO2 =
2017-12-16 15:15 METAR KFMH 162015Z AUTO 28012KT 10SM BKN095 M01/M09 A2994 RMK AO2 =
2017-12-16 14:55 METAR KFMH 161955Z AUTO 28011G20KT 10SM OVC095 M01/M09 A2994 RMK AO2 =

Support USWX by starting your Amazon purchase here.